Time;durP1;ratioP1;P1;durP2;ratioP2;P2;SDS_P1;SDS_P2;PMS_P1;PMS_P2;Temp;Humidity;BMP_temperature;BMP_pressure;BME280_temperature;BME280_humidity;BME280_pressure;Samples;Min_cycle;Max_cycle;Signal;HPM_P1;HPM_P2
2022/05/18 00:00:36;;;;;;;7.33;4.63;;;;;;;;;;6128237;23;20207;-86
2022/05/18 00:03:05;;;;;;;7.37;5.87;;;;;;;;;;6129125;23;20208;-86
2022/05/18 00:05:34;;;;;;;5.43;3.33;;;;;;;;;;6130017;23;20176;-86
2022/05/18 00:08:03;;;;;;;8.37;3.83;;;;;;;;;;6128072;23;20180;-86
2022/05/18 00:10:31;;;;;;;6.37;4.13;;;;;;;;;;6128724;23;20176;-86
2022/05/18 00:13:01;;;;;;;2.63;2.30;;;;;;;;;;6128213;23;20200;-86
2022/05/18 00:15:30;;;;;;;5.60;2.97;;;;;;;;;;6128681;23;20182;-86
2022/05/18 00:17:58;;;;;;;1.70;0.50;;;;;;;;;;6129587;23;20178;-86
2022/05/18 00:20:27;;;;;;;0.40;0.40;;;;;;;;;;6128955;23;20267;-86
2022/05/18 00:22:59;;;;;;;1.47;1.47;;;;;;;;;;6128441;23;20201;-86
2022/05/18 00:25:29;;;;;;;1.13;1.13;;;;;;;;;;6129162;23;20264;-86
2022/05/18 00:27:57;;;;;;;0.30;0.30;;;;;;;;;;6128569;23;20182;-86
2022/05/18 00:30:28;;;;;;;0.63;0.63;;;;;;;;;;6129618;23;20215;-86
2022/05/18 00:32:56;;;;;;;0.60;0.60;;;;;;;;;;6128463;23;20200;-86
2022/05/18 00:35:25;;;;;;;0.60;0.60;;;;;;;;;;6128603;23;20180;-86
2022/05/18 00:37:54;;;;;;;3.50;1.80;;;;;;;;;;6128795;23;20177;-87
2022/05/18 00:40:22;;;;;;;0.67;0.67;;;;;;;;;;6128407;23;20181;-86
2022/05/18 00:42:51;;;;;;;1.37;1.37;;;;;;;;;;6129428;23;20184;-87
2022/05/18 00:45:19;;;;;;;2.77;2.57;;;;;;;;;;6128876;23;20185;-86
2022/05/18 00:47:50;;;;;;;0.60;0.60;;;;;;;;;;6130191;23;20179;-86
2022/05/18 00:50:21;;;;;;;0.90;0.90;;;;;;;;;;6128642;23;20269;-86
2022/05/18 00:52:52;;;;;;;1.33;1.33;;;;;;;;;;6128936;23;20194;-86
2022/05/18 00:55:23;;;;;;;1.17;1.13;;;;;;;;;;6129757;23;20187;-86
2022/05/18 00:57:54;;;;;;;0.50;0.50;;;;;;;;;;6130062;23;20183;-86
2022/05/18 01:00:23;;;;;;;1.90;1.80;;;;;;;;;;6129957;23;20185;-86
2022/05/18 01:02:56;;;;;;;0.50;0.50;;;;;;;;;;6130550;23;20172;-86
2022/05/18 01:05:27;;;;;;;3.87;3.10;;;;;;;;;;6131292;23;20174;-86
2022/05/18 01:07:57;;;;;;;2.50;2.30;;;;;;;;;;6130434;23;20183;-86
2022/05/18 01:10:25;;;;;;;4.33;3.73;;;;;;;;;;6130584;23;20199;-86
2022/05/18 01:12:54;;;;;;;0.47;0.47;;;;;;;;;;6128743;23;20204;-85
2022/05/18 01:15:22;;;;;;;0.30;0.30;;;;;;;;;;6128573;23;20188;-86
2022/05/18 01:17:56;;;;;;;2.87;2.60;;;;;;;;;;6129581;23;20172;-86
2022/05/18 01:20:26;;;;;;;0.53;0.53;;;;;;;;;;6127843;23;20191;-86
2022/05/18 01:23:00;;;;;;;1.90;1.80;;;;;;;;;;6130260;23;20176;-86
2022/05/18 01:25:37;;;;;;;0.80;0.80;;;;;;;;;;6127871;23;20179;-86
2022/05/18 01:28:08;;;;;;;1.03;1.03;;;;;;;;;;6128636;23;20182;-86
2022/05/18 01:30:37;;;;;;;1.37;1.27;;;;;;;;;;6133114;23;20184;-86
2022/05/18 01:33:07;;;;;;;1.53;1.43;;;;;;;;;;6158239;23;20193;-86
2022/05/18 01:35:38;;;;;;;2.80;2.70;;;;;;;;;;6132495;23;20211;-86
2022/05/18 01:38:07;;;;;;;1.37;1.17;;;;;;;;;;6132667;23;20179;-86
2022/05/18 01:40:40;;;;;;;1.27;1.17;;;;;;;;;;6158442;23;20172;-86
2022/05/18 01:43:13;;;;;;;0.50;0.50;;;;;;;;;;6132863;23;20179;-87
2022/05/18 01:45:42;;;;;;;1.50;1.23;;;;;;;;;;6132355;23;20186;-86
2022/05/18 01:48:11;;;;;;;1.87;1.80;;;;;;;;;;6157981;23;20173;-87
2022/05/18 01:50:40;;;;;;;0.70;0.70;;;;;;;;;;6158688;23;20182;-87
2022/05/18 01:53:09;;;;;;;1.47;1.47;;;;;;;;;;6132474;23;20196;-86
2022/05/18 01:55:37;;;;;;;0.50;0.50;;;;;;;;;;6132657;23;20185;-86
2022/05/18 01:58:06;;;;;;;0.40;0.40;;;;;;;;;;6133929;23;20187;-86
2022/05/18 02:00:36;;;;;;;0.40;0.40;;;;;;;;;;6159979;23;20172;-87
2022/05/18 02:03:04;;;;;;;1.77;1.63;;;;;;;;;;6159403;23;20176;-87
2022/05/18 02:05:33;;;;;;;1.67;1.57;;;;;;;;;;6159700;23;20259;-87
2022/05/18 02:08:01;;;;;;;0.40;0.40;;;;;;;;;;6133054;23;20202;-87
2022/05/18 02:10:30;;;;;;;0.40;0.40;;;;;;;;;;6134007;23;20180;-88
2022/05/18 02:12:58;;;;;;;0.40;0.40;;;;;;;;;;6138709;23;20192;-87
2022/05/18 02:15:27;;;;;;;1.80;1.70;;;;;;;;;;6139449;23;20195;-87
2022/05/18 02:17:57;;;;;;;2.53;1.67;;;;;;;;;;6138989;23;20186;-87
2022/05/18 02:20:25;;;;;;;1.87;1.73;;;;;;;;;;6165902;23;20172;-87
2022/05/18 02:22:53;;;;;;;4.43;3.70;;;;;;;;;;6140130;23;20184;-87
2022/05/18 02:25:22;;;;;;;0.93;0.93;;;;;;;;;;6139745;23;20199;-87
2022/05/18 02:27:51;;;;;;;3.07;2.80;;;;;;;;;;6133298;23;20185;-87
2022/05/18 02:30:20;;;;;;;3.80;3.50;;;;;;;;;;6133274;23;20212;-87
2022/05/18 02:32:48;;;;;;;6.60;3.83;;;;;;;;;;6159611;23;20200;-88
2022/05/18 02:35:18;;;;;;;5.43;4.80;;;;;;;;;;6132952;23;20186;-87
2022/05/18 02:37:47;;;;;;;6.27;3.63;;;;;;;;;;6132276;23;20211;-87
2022/05/18 02:40:16;;;;;;;8.03;3.10;;;;;;;;;;6132715;23;20190;-87
2022/05/18 02:42:44;;;;;;;2.27;2.23;;;;;;;;;;6134782;23;20212;-88
2022/05/18 02:45:13;;;;;;;2.17;2.07;;;;;;;;;;6133798;23;20200;-87
2022/05/18 02:47:41;;;;;;;4.43;4.20;;;;;;;;;;6134179;23;20179;-87
2022/05/18 02:50:10;;;;;;;1.23;1.13;;;;;;;;;;6159831;23;20180;-87
2022/05/18 02:52:40;;;;;;;0.67;0.67;;;;;;;;;;6134219;23;20171;-88
2022/05/18 02:57:55;;;;;;;2.10;2.00;;;;;;;;;;6134554;23;20176;-88
2022/05/18 03:00:24;;;;;;;2.13;1.73;;;;;;;;;;6159896;23;20180;-87
2022/05/18 03:02:52;;;;;;;0.77;0.77;;;;;;;;;;6134359;23;20179;-87
2022/05/18 03:05:21;;;;;;;2.50;2.33;;;;;;;;;;6159777;23;20175;-88
2022/05/18 03:07:51;;;;;;;3.13;2.93;;;;;;;;;;6134149;23;20202;-87
2022/05/18 03:10:20;;;;;;;3.73;3.37;;;;;;;;;;6134356;23;20186;-87
2022/05/18 03:12:48;;;;;;;0.80;0.80;;;;;;;;;;6133604;23;20184;-87
2022/05/18 03:15:16;;;;;;;0.90;0.90;;;;;;;;;;6134016;23;20190;-87
2022/05/18 03:17:46;;;;;;;0.60;0.60;;;;;;;;;;6133998;23;20240;-85
2022/05/18 03:25:44;;;;;;;0.80;0.80;;;;;;;;;;6133040;23;20196;-86
2022/05/18 03:28:12;;;;;;;5.17;4.67;;;;;;;;;;6133463;23;20183;-86
2022/05/18 03:30:41;;;;;;;18.57;13.63;;;;;;;;;;6133158;23;20209;-87
2022/05/18 03:33:09;;;;;;;21.40;16.17;;;;;;;;;;6159715;23;20184;-86
2022/05/18 03:35:38;;;;;;;22.00;18.87;;;;;;;;;;6134444;23;20183;-86
2022/05/18 03:38:07;;;;;;;27.53;19.60;;;;;;;;;;6159355;23;20168;-86
2022/05/18 03:40:42;;;;;;;13.63;12.13;;;;;;;;;;6133477;23;20265;-86
2022/05/18 03:43:10;;;;;;;24.63;19.83;;;;;;;;;;6133700;23;20186;-87
2022/05/18 03:45:39;;;;;;;24.23;18.53;;;;;;;;;;6133621;23;20384;-86
2022/05/18 03:48:08;;;;;;;15.57;11.53;;;;;;;;;;6134406;23;20179;-86
2022/05/18 03:50:37;;;;;;;19.87;14.73;;;;;;;;;;6133483;23;20195;-86
2022/05/18 03:53:05;;;;;;;19.17;14.20;;;;;;;;;;6132997;23;20180;-86
2022/05/18 03:55:35;;;;;;;25.57;21.27;;;;;;;;;;6133448;23;20244;-86
2022/05/18 03:58:04;;;;;;;23.03;20.30;;;;;;;;;;6133830;23;20188;-86
2022/05/18 04:00:33;;;;;;;22.60;18.77;;;;;;;;;;6159359;23;20198;-86
2022/05/18 04:03:02;;;;;;;20.20;17.17;;;;;;;;;;6133625;23;20171;-86
2022/05/18 04:05:32;;;;;;;15.40;8.60;;;;;;;;;;6133057;23;20169;-86
2022/05/18 04:08:01;;;;;;;22.30;17.40;;;;;;;;;;6132609;23;20248;-86
2022/05/18 04:10:30;;;;;;;25.17;19.97;;;;;;;;;;6158815;23;20176;-86
2022/05/18 04:13:00;;;;;;;25.10;19.13;;;;;;;;;;6132641;23;20202;-86
2022/05/18 04:15:28;;;;;;;22.17;15.07;;;;;;;;;;6158460;23;20196;-85
2022/05/18 04:17:58;;;;;;;19.17;14.23;;;;;;;;;;6132216;23;20177;-86
2022/05/18 04:20:27;;;;;;;19.00;13.40;;;;;;;;;;6132963;23;20232;-86
2022/05/18 04:22:56;;;;;;;22.20;16.93;;;;;;;;;;6132946;23;20175;-86
2022/05/18 04:25:26;;;;;;;16.37;11.93;;;;;;;;;;6132523;23;20211;-86
2022/05/18 04:27:54;;;;;;;22.50;15.93;;;;;;;;;;6132799;23;20176;-86
2022/05/18 04:30:25;;;;;;;20.50;17.10;;;;;;;;;;6157852;23;20295;-86
2022/05/18 04:32:53;;;;;;;22.10;16.50;;;;;;;;;;6132822;23;20176;-87
2022/05/18 04:35:23;;;;;;;19.00;15.43;;;;;;;;;;6132427;23;20200;-86
2022/05/18 04:37:52;;;;;;;22.20;16.47;;;;;;;;;;6132238;23;20177;-86
2022/05/18 04:40:21;;;;;;;17.80;13.10;;;;;;;;;;6158643;23;20171;-86
2022/05/18 04:42:50;;;;;;;23.50;19.00;;;;;;;;;;6133025;23;20183;-86
2022/05/18 04:45:20;;;;;;;22.40;16.03;;;;;;;;;;6132171;23;20176;-86
2022/05/18 04:47:50;;;;;;;23.10;16.43;;;;;;;;;;6132092;23;20200;-86
2022/05/18 04:50:19;;;;;;;21.53;17.63;;;;;;;;;;6132032;23;20187;-87
2022/05/18 04:52:48;;;;;;;18.03;13.93;;;;;;;;;;6131787;23;20183;-86
2022/05/18 04:55:16;;;;;;;5.93;5.30;;;;;;;;;;6131662;23;20197;-87
2022/05/18 04:57:45;;;;;;;21.53;15.23;;;;;;;;;;6131056;23;20176;-84
2022/05/18 05:00:15;;;;;;;22.00;16.87;;;;;;;;;;6130306;23;20172;-84
2022/05/18 05:02:43;;;;;;;24.73;16.43;;;;;;;;;;6130910;23;20174;-84
2022/05/18 05:05:14;;;;;;;18.53;13.73;;;;;;;;;;6130699;23;20261;-84
2022/05/18 05:07:43;;;;;;;18.63;14.43;;;;;;;;;;6130683;23;20176;-85
2022/05/18 05:10:11;;;;;;;16.40;11.83;;;;;;;;;;6131086;23;20177;-84
2022/05/18 05:12:42;;;;;;;15.67;10.30;;;;;;;;;;6156756;23;20168;-84
2022/05/18 05:15:11;;;;;;;8.33;4.53;;;;;;;;;;6130299;23;20192;-85
2022/05/18 05:17:40;;;;;;;11.57;10.00;;;;;;;;;;6130557;23;20184;-84
2022/05/18 05:20:09;;;;;;;15.90;11.90;;;;;;;;;;6130283;23;20177;-84
2022/05/18 05:22:39;;;;;;;15.90;13.53;;;;;;;;;;6130645;23;20177;-84
2022/05/18 05:25:08;;;;;;;12.73;9.07;;;;;;;;;;6130382;23;20177;-84
2022/05/18 05:27:36;;;;;;;16.43;10.43;;;;;;;;;;6130393;23;20270;-84
2022/05/18 05:30:06;;;;;;;11.70;10.33;;;;;;;;;;6130253;23;20212;-84
2022/05/18 05:32:34;;;;;;;13.27;10.63;;;;;;;;;;6130744;23;20213;-85
2022/05/18 05:35:04;;;;;;;13.53;10.47;;;;;;;;;;6130167;23;20220;-84
2022/05/18 05:37:43;;;;;;;3.60;3.03;;;;;;;;;;6130751;23;20200;-84
2022/05/18 05:40:16;;;;;;;13.47;9.67;;;;;;;;;;6156147;23;20179;-84
2022/05/18 05:42:45;;;;;;;14.87;9.13;;;;;;;;;;6130408;23;20181;-84
2022/05/18 05:45:14;;;;;;;6.30;5.00;;;;;;;;;;6156146;23;20170;-84
2022/05/18 05:47:42;;;;;;;2.47;1.83;;;;;;;;;;6129893;23;20185;-84
2022/05/18 05:50:25;;;;;;;1.57;1.47;;;;;;;;;;6156176;23;20181;-84
2022/05/18 05:53:00;;;;;;;3.63;2.07;;;;;;;;;;6130495;23;20183;-84
2022/05/18 05:55:32;;;;;;;5.57;5.07;;;;;;;;;;6129850;23;20191;-84
2022/05/18 05:58:01;;;;;;;6.03;5.53;;;;;;;;;;6130050;23;20204;-84
2022/05/18 06:00:29;;;;;;;8.40;6.77;;;;;;;;;;6130185;23;20284;-84
2022/05/18 06:02:58;;;;;;;5.53;4.50;;;;;;;;;;6156155;23;20174;-84
2022/05/18 06:05:28;;;;;;;5.30;4.73;;;;;;;;;;6130085;23;20177;-84
2022/05/18 06:07:58;;;;;;;7.40;4.23;;;;;;;;;;6130049;23;20178;-84
2022/05/18 06:10:26;;;;;;;1.13;1.13;;;;;;;;;;6155633;23;20249;-84
2022/05/18 06:12:56;;;;;;;6.70;5.30;;;;;;;;;;6155833;23;20167;-84
2022/05/18 06:15:34;;;;;;;5.40;4.90;;;;;;;;;;6155438;23;20197;-84
2022/05/18 06:18:02;;;;;;;3.90;3.53;;;;;;;;;;6130034;23;20180;-84
2022/05/18 06:20:31;;;;;;;11.23;9.63;;;;;;;;;;6129726;23;20178;-84
2022/05/18 06:23:07;;;;;;;1.53;1.43;;;;;;;;;;6129981;23;20177;-85
2022/05/18 06:25:36;;;;;;;8.00;5.43;;;;;;;;;;6129699;23;20175;-84
2022/05/18 06:28:07;;;;;;;11.80;7.77;;;;;;;;;;6130420;23;20184;-84
2022/05/18 06:30:36;;;;;;;2.10;1.80;;;;;;;;;;6101096;23;20202;-84
2022/05/18 06:33:04;;;;;;;4.50;3.00;;;;;;;;;;6124890;23;20178;-84
2022/05/18 06:35:33;;;;;;;6.87;4.63;;;;;;;;;;6100573;23;20205;-84
2022/05/18 06:45:43;;;;;;;7.93;4.90;;;;;;;;;;5995863;23;20188;-84
2022/05/18 06:48:59;;;;;;;13.83;7.57;;;;;;;;;;6002412;23;20178;-84
2022/05/18 06:51:39;;;;;;;9.27;7.77;;;;;;;;;;6080746;23;20187;-84
2022/05/18 06:54:16;;;;;;;8.93;4.77;;;;;;;;;;6101094;23;20187;-83
2022/05/18 06:57:07;;;;;;;19.73;15.83;;;;;;;;;;6100644;23;20207;-83
2022/05/18 06:59:45;;;;;;;15.73;9.03;;;;;;;;;;6100654;23;20188;-82
2022/05/18 07:05:27;;;;;;;11.13;8.83;;;;;;;;;;6100560;23;20260;-82
2022/05/18 07:08:16;;;;;;;16.13;11.80;;;;;;;;;;6099908;23;20203;-83
2022/05/18 07:10:52;;;;;;;6.20;5.37;;;;;;;;;;6100591;23;20260;-83
2022/05/18 07:13:27;;;;;;;18.73;7.43;;;;;;;;;;6100489;23;20261;-83
2022/05/18 07:16:18;;;;;;;15.07;10.60;;;;;;;;;;6100395;23;20195;-84
2022/05/18 07:19:01;;;;;;;8.20;6.50;;;;;;;;;;6097097;23;20195;-83
2022/05/18 07:24:49;;;;;;;13.93;5.97;;;;;;;;;;6100454;23;20264;-83
2022/05/18 07:31:05;;;;;;;3.43;2.73;;;;;;;;;;6125284;23;20196;-83
2022/05/18 07:34:23;;;;;;;15.23;9.63;;;;;;;;;;6126921;23;20182;-84
2022/05/18 07:37:24;;;;;;;15.33;7.50;;;;;;;;;;6125878;23;20205;-84
2022/05/18 07:40:10;;;;;;;;;;;;;;;;;;;;;
2022/05/18 07:42:43;;;;;;;12.17;7.57;;;;;;;;;;6126744;23;20187;-84
2022/05/18 07:45:26;;;;;;;3.50;3.20;;;;;;;;;;6126843;23;20194;-82
2022/05/18 07:48:14;;;;;;;7.77;7.00;;;;;;;;;;6126555;23;20179;-83
2022/05/18 07:51:00;;;;;;;7.20;4.80;;;;;;;;;;6126275;23;20185;-83
2022/05/18 07:53:39;;;;;;;13.23;8.50;;;;;;;;;;6126830;23;20178;-83
2022/05/18 07:56:13;;;;;;;10.30;5.43;;;;;;;;;;6126797;23;20195;-83
2022/05/18 07:58:49;;;;;;;12.37;7.10;;;;;;;;;;6126746;23;20265;-83
2022/05/18 08:01:42;;;;;;;9.03;7.00;;;;;;;;;;6122360;23;20180;-84
2022/05/18 08:04:25;;;;;;;10.13;8.17;;;;;;;;;;6134567;23;20224;-82
2022/05/18 08:26:17;;;;;;;12.73;8.64;;;;;;;;;;6180837;22;15166186;-82
2022/05/18 08:32:34;;;;;;;;;;;;;;;;;;;;;
2022/05/18 08:35:25;;;;;;;11.47;8.00;;;;;;;;;;6195480;23;20267;-82
2022/05/18 08:38:27;;;;;;;13.13;10.57;;;;;;;;;;6194618;23;20179;-83
2022/05/18 08:41:22;;;;;;;9.83;5.67;;;;;;;;;;6220448;23;20230;-84
2022/05/18 08:44:28;;;;;;;11.07;6.50;;;;;;;;;;6196211;23;20183;-83
2022/05/18 08:58:29;;;;;;;6.97;3.40;;;;;;;;;;6013964;23;20176;-84
2022/05/18 09:13:21;;;;;;;4.37;3.40;;;;;;;;;;5968637;23;20234;-84
2022/05/18 09:16:32;;;;;;;4.40;4.00;;;;;;;;;;6044321;23;20180;-84
2022/05/18 09:23:12;;;;;;;1.83;1.73;;;;;;;;;;5893077;24;20207;-84
2022/05/18 09:26:14;;;;;;;;;;;;;;;;;;;;;
2022/05/18 09:32:37;;;;;;;4.10;2.37;;;;;;;;;;5928768;24;20262;-82
2022/05/18 09:39:43;;;;;;;;;;;;;;;;;;;;;
2022/05/18 09:50:44;;;;;;;3.60;2.67;;;;;;;;;;5896347;24;20253;-82
2022/05/18 09:54:11;;;;;;;4.97;3.93;;;;;;;;;;5817141;24;20501;-84
2022/05/18 09:57:34;;;;;;;4.33;2.73;;;;;;;;;;5967704;23;20180;-83
2022/05/18 10:07:45;;;;;;;10.13;5.17;;;;;;;;;;5963352;23;20207;-84
2022/05/18 10:14:38;;;;;;;5.23;4.70;;;;;;;;;;5922235;23;20186;-83
2022/05/18 10:33:10;;;;;;;3.03;2.83;;;;;;;;;;5878095;24;20241;-86
2022/05/18 10:39:29;;;;;;;2.30;1.97;;;;;;;;;;5950382;24;20268;-82
2022/05/18 10:50:55;;;;;;;;;;;;;;;;;;;;;
2022/05/18 11:55:02;;;;;;;5.83;3.87;;;;;;;;;;5709373;24;20270;-83
2022/05/18 12:01:54;;;;;;;6.33;3.10;;;;;;;;;;6080574;23;20190;-82
2022/05/18 12:05:11;;;;;;;5.00;3.07;;;;;;;;;;6085612;23;20205;-83
2022/05/18 12:08:42;;;;;;;3.60;2.63;;;;;;;;;;6098626;23;20207;-83
2022/05/18 12:11:45;;;;;;;2.03;1.93;;;;;;;;;;6095834;23;20190;-84
2022/05/18 12:15:12;;;;;;;2.30;2.10;;;;;;;;;;6069991;23;20347;-82
2022/05/18 12:18:20;;;;;;;2.73;2.50;;;;;;;;;;6087017;23;20349;-82
2022/05/18 12:21:07;;;;;;;3.77;2.33;;;;;;;;;;6097780;23;20231;-82
2022/05/18 12:23:48;;;;;;;1.57;1.47;;;;;;;;;;6099020;23;20219;-82
2022/05/18 12:26:34;;;;;;;5.67;1.73;;;;;;;;;;6187286;23;20175;-81
2022/05/18 12:29:12;;;;;;;1.53;1.43;;;;;;;;;;6158555;23;20206;-83
2022/05/18 12:32:22;;;;;;;1.40;1.27;;;;;;;;;;6158562;23;20208;-84
2022/05/18 12:39:21;;;;;;;5.47;2.10;;;;;;;;;;6137429;23;20182;-82
2022/05/18 12:41:59;;;;;;;1.53;1.37;;;;;;;;;;6155185;23;20179;-82
2022/05/18 12:44:42;;;;;;;1.47;1.27;;;;;;;;;;6158730;23;20186;-82
2022/05/18 12:47:31;;;;;;;1.67;1.57;;;;;;;;;;6157779;23;20194;-83
2022/05/18 12:50:14;;;;;;;1.60;1.40;;;;;;;;;;6158110;23;20171;-84
2022/05/18 12:53:21;;;;;;;2.53;1.60;;;;;;;;;;6159635;23;20175;-82
2022/05/18 13:06:24;;;;;;;1.27;1.07;;;;;;;;;;6173335;22;20206;-83
2022/05/18 13:09:42;;;;;;;2.73;1.70;;;;;;;;;;6220053;23;20187;-83
2022/05/18 13:12:58;;;;;;;6.73;1.67;;;;;;;;;;6218185;23;20188;-86
2022/05/18 13:16:10;;;;;;;1.63;1.53;;;;;;;;;;6218555;23;20173;-84
2022/05/18 13:19:47;;;;;;;;;;;;;;;;;;;;;
2022/05/18 13:26:51;;;;;;;1.60;1.50;;;;;;;;;;6200962;23;20181;-83
2022/05/18 13:29:46;;;;;;;3.50;0.60;;;;;;;;;;6218044;23;20175;-83
2022/05/18 13:32:45;;;;;;;0.63;0.63;;;;;;;;;;6229339;23;20179;-84
2022/05/18 13:36:06;;;;;;;1.40;1.33;;;;;;;;;;6218425;23;20190;-85
2022/05/18 13:46:25;;;;;;;1.57;0.90;;;;;;;;;;6065916;23;20250;-84
2022/05/18 13:49:41;;;;;;;0.97;0.97;;;;;;;;;;6047280;23;20252;-86
2022/05/18 13:52:27;;;;;;;1.17;1.07;;;;;;;;;;6068897;23;20177;-86
2022/05/18 13:55:26;;;;;;;5.73;1.77;;;;;;;;;;6092045;23;20208;-83
2022/05/18 13:58:07;;;;;;;0.40;0.40;;;;;;;;;;6092178;23;20257;-84
2022/05/18 14:00:53;;;;;;;;;;;;;;;;;;;;;
2022/05/18 14:04:08;;;;;;;3.07;1.50;;;;;;;;;;6186916;23;20200;-84
2022/05/18 14:07:13;;;;;;;1.83;1.53;;;;;;;;;;6210848;23;20302;-84
2022/05/18 14:21:44;;;;;;;1.63;1.20;;;;;;;;;;6023986;23;20192;-85
2022/05/18 14:24:58;;;;;;;0.60;0.60;;;;;;;;;;6050995;23;20182;-84
2022/05/18 14:28:20;;;;;;;2.27;1.07;;;;;;;;;;6158622;23;20243;-83
2022/05/18 14:31:19;;;;;;;0.60;0.60;;;;;;;;;;6146748;23;20285;-85
2022/05/18 14:38:28;;;;;;;0.90;0.90;;;;;;;;;;6155175;23;20200;-83
2022/05/18 14:41:26;;;;;;;2.17;1.63;;;;;;;;;;6180325;23;20200;-81
2022/05/18 14:44:14;;;;;;;1.13;1.03;;;;;;;;;;6202462;23;20195;-82
2022/05/18 14:47:21;;;;;;;3.60;1.03;;;;;;;;;;6209302;23;20285;-85
2022/05/18 14:50:25;;;;;;;1.13;0.80;;;;;;;;;;6212447;23;20184;-83
2022/05/18 14:52:58;;;;;;;0.40;0.40;;;;;;;;;;6211774;23;20181;-83
2022/05/18 14:55:37;;;;;;;3.70;1.27;;;;;;;;;;6211857;23;20177;-83
2022/05/18 14:58:19;;;;;;;0.50;0.50;;;;;;;;;;6212842;23;20177;-82
2022/05/18 15:01:01;;;;;;;0.97;0.97;;;;;;;;;;6211041;23;20261;-85
2022/05/18 15:03:36;;;;;;;1.07;1.07;;;;;;;;;;6211466;23;20228;-82
2022/05/18 15:06:08;;;;;;;0.83;0.83;;;;;;;;;;6211451;23;20211;-85
2022/05/18 15:08:52;;;;;;;1.70;0.73;;;;;;;;;;6210084;23;20200;-84
2022/05/18 15:14:58;;;;;;;0.30;0.30;;;;;;;;;;6165589;23;20322;-83
2022/05/18 15:17:43;;;;;;;0.20;0.20;;;;;;;;;;6212226;23;20184;-85
2022/05/18 15:20:21;;;;;;;0.70;0.70;;;;;;;;;;6211433;23;20263;-84
2022/05/18 15:23:43;;;;;;;1.23;1.03;;;;;;;;;;6211132;23;20180;-86
2022/05/18 15:26:50;;;;;;;2.90;1.17;;;;;;;;;;6160672;23;20226;-86
2022/05/18 15:29:43;;;;;;;0.50;0.50;;;;;;;;;;6212637;23;20273;-86
2022/05/18 15:32:23;;;;;;;0.60;0.60;;;;;;;;;;6208268;23;20241;-85
2022/05/18 15:35:07;;;;;;;1.83;1.40;;;;;;;;;;6210347;23;20186;-86
2022/05/18 15:37:40;;;;;;;0.30;0.30;;;;;;;;;;6214254;23;20201;-85
2022/05/18 15:40:12;;;;;;;0.20;0.20;;;;;;;;;;6213288;23;20184;-86
2022/05/18 15:42:42;;;;;;;0.60;0.60;;;;;;;;;;6213870;23;20200;-85
2022/05/18 15:45:11;;;;;;;0.50;0.50;;;;;;;;;;6214704;23;20184;-86
2022/05/18 15:47:41;;;;;;;0.30;0.30;;;;;;;;;;6214797;23;20218;-86
2022/05/18 15:50:09;;;;;;;0.93;0.93;;;;;;;;;;6214607;23;20181;-86
2022/05/18 15:52:38;;;;;;;0.30;0.30;;;;;;;;;;6215883;23;20177;-86
2022/05/18 15:55:07;;;;;;;0.30;0.30;;;;;;;;;;6214727;23;20180;-86
2022/05/18 15:57:38;;;;;;;0.57;0.57;;;;;;;;;;6214576;23;20175;-86
2022/05/18 16:00:22;;;;;;;0.30;0.30;;;;;;;;;;6214447;23;20239;-86
2022/05/18 16:02:54;;;;;;;0.40;0.40;;;;;;;;;;6214191;23;20172;-85
2022/05/18 16:05:23;;;;;;;4.83;1.20;;;;;;;;;;6215439;23;20271;-86
2022/05/18 16:07:52;;;;;;;0.37;0.37;;;;;;;;;;6219408;23;20230;-86
2022/05/18 16:10:22;;;;;;;0.50;0.50;;;;;;;;;;6219840;23;20183;-86
2022/05/18 16:12:51;;;;;;;0.53;0.53;;;;;;;;;;6219309;23;20183;-86
2022/05/18 16:15:22;;;;;;;1.10;0.87;;;;;;;;;;6219893;23;20176;-85
2022/05/18 16:17:50;;;;;;;1.40;0.37;;;;;;;;;;6219634;23;20197;-85
2022/05/18 16:20:20;;;;;;;0.20;0.20;;;;;;;;;;6245927;23;20190;-85
2022/05/18 16:23:09;;;;;;;0.30;0.30;;;;;;;;;;6246081;23;20247;-85
2022/05/18 16:25:38;;;;;;;0.50;0.50;;;;;;;;;;6219587;23;20184;-85
2022/05/18 16:28:08;;;;;;;0.30;0.30;;;;;;;;;;6220661;23;20208;-86
2022/05/18 16:30:41;;;;;;;0.40;0.40;;;;;;;;;;6248227;23;20176;-86
2022/05/18 16:33:32;;;;;;;1.37;0.50;;;;;;;;;;6247685;23;20177;-86
2022/05/18 16:36:01;;;;;;;2.10;0.60;;;;;;;;;;6221472;23;20176;-86
2022/05/18 16:38:50;;;;;;;0.60;0.60;;;;;;;;;;6221612;23;20178;-86
2022/05/18 16:41:21;;;;;;;0.33;0.33;;;;;;;;;;6221338;23;20238;-86
2022/05/18 16:43:51;;;;;;;0.97;0.40;;;;;;;;;;6221565;23;20175;-87
2022/05/18 16:46:24;;;;;;;0.30;0.30;;;;;;;;;;6221759;23;20243;-86
2022/05/18 16:48:52;;;;;;;0.30;0.30;;;;;;;;;;6248274;23;20263;-87
2022/05/18 16:51:21;;;;;;;1.07;1.07;;;;;;;;;;6221762;23;20183;-86
2022/05/18 16:53:49;;;;;;;0.97;0.83;;;;;;;;;;6221089;23;20261;-86
2022/05/18 16:56:18;;;;;;;0.93;0.33;;;;;;;;;;6221118;23;20176;-86
2022/05/18 16:58:46;;;;;;;0.20;0.20;;;;;;;;;;6221367;23;20203;-86
2022/05/18 17:01:17;;;;;;;0.50;0.50;;;;;;;;;;6221401;23;20259;-87
2022/05/18 17:03:47;;;;;;;0.93;0.93;;;;;;;;;;6247677;23;20191;-86
2022/05/18 17:06:17;;;;;;;0.50;0.50;;;;;;;;;;6215748;23;20209;-86
2022/05/18 17:08:47;;;;;;;0.20;0.20;;;;;;;;;;6216457;23;20227;-86
2022/05/18 17:11:16;;;;;;;0.33;0.33;;;;;;;;;;6215650;23;20175;-86
2022/05/18 17:13:46;;;;;;;0.40;0.40;;;;;;;;;;6215729;23;20263;-86
2022/05/18 17:16:18;;;;;;;0.40;0.40;;;;;;;;;;6217481;23;20222;-86
2022/05/18 17:18:57;;;;;;;1.53;1.43;;;;;;;;;;6216594;23;20231;-86
2022/05/18 17:21:33;;;;;;;1.90;1.80;;;;;;;;;;6217324;23;20184;-86
2022/05/18 17:24:02;;;;;;;0.20;0.20;;;;;;;;;;6215707;23;20182;-86
2022/05/18 17:26:32;;;;;;;2.90;1.77;;;;;;;;;;6216208;23;20170;-86
2022/05/18 17:29:01;;;;;;;1.17;0.60;;;;;;;;;;6215793;23;20170;-86
2022/05/18 17:31:30;;;;;;;0.40;0.40;;;;;;;;;;6215993;23;20201;-86
2022/05/18 17:34:00;;;;;;;0.73;0.73;;;;;;;;;;6215748;23;20181;-86
2022/05/18 17:36:28;;;;;;;0.60;0.60;;;;;;;;;;6215870;23;20182;-86
2022/05/18 17:38:57;;;;;;;0.80;0.80;;;;;;;;;;6215386;23;20194;-86
2022/05/18 17:41:26;;;;;;;0.40;0.40;;;;;;;;;;6217402;23;20171;-87
2022/05/18 17:43:54;;;;;;;0.20;0.20;;;;;;;;;;6216846;23;20209;-86
2022/05/18 17:46:23;;;;;;;0.10;0.10;;;;;;;;;;6217119;23;20170;-86
2022/05/18 17:49:13;;;;;;;0.40;0.40;;;;;;;;;;6215772;23;20181;-86
2022/05/18 17:51:41;;;;;;;0.77;0.40;;;;;;;;;;6215492;23;20206;-86
2022/05/18 17:54:10;;;;;;;0.40;0.40;;;;;;;;;;6216579;23;20183;-86
2022/05/18 17:56:38;;;;;;;0.33;0.33;;;;;;;;;;6215600;23;20174;-86
2022/05/18 17:59:22;;;;;;;0.30;0.30;;;;;;;;;;6215908;23;20197;-86
2022/05/18 18:01:52;;;;;;;0.43;0.43;;;;;;;;;;6215553;23;20181;-86
2022/05/18 18:04:22;;;;;;;0.40;0.40;;;;;;;;;;6215267;23;20189;-86
2022/05/18 18:06:51;;;;;;;0.27;0.27;;;;;;;;;;6215313;23;20212;-86
2022/05/18 18:09:19;;;;;;;0.30;0.30;;;;;;;;;;6215793;23;20242;-86
2022/05/18 18:11:48;;;;;;;0.50;0.50;;;;;;;;;;6216902;23;20174;-86
2022/05/18 18:14:16;;;;;;;0.20;0.20;;;;;;;;;;6215221;23;20183;-86
2022/05/18 18:16:45;;;;;;;0.60;0.60;;;;;;;;;;6215453;23;20185;-86
2022/05/18 18:19:13;;;;;;;0.20;0.20;;;;;;;;;;6215445;23;20193;-86
2022/05/18 18:21:43;;;;;;;0.27;0.27;;;;;;;;;;6215378;23;20177;-86
2022/05/18 18:24:21;;;;;;;2.53;0.50;;;;;;;;;;6216691;23;20172;-86
2022/05/18 18:26:49;;;;;;;0.20;0.20;;;;;;;;;;6216866;23;20169;-86
2022/05/18 18:29:18;;;;;;;1.60;1.60;;;;;;;;;;6216961;23;20184;-86
2022/05/18 18:31:47;;;;;;;0.53;0.53;;;;;;;;;;6214546;23;20181;-86
2022/05/18 18:34:16;;;;;;;0.33;0.33;;;;;;;;;;6215452;23;20181;-86
2022/05/18 18:36:47;;;;;;;0.53;0.53;;;;;;;;;;6214565;23;20200;-87
2022/05/18 18:39:25;;;;;;;0.50;0.50;;;;;;;;;;6214743;23;20180;-86
2022/05/18 18:41:54;;;;;;;0.30;0.30;;;;;;;;;;6215555;23;20174;-86
2022/05/18 18:44:23;;;;;;;0.30;0.30;;;;;;;;;;6215139;23;20174;-86
2022/05/18 18:46:51;;;;;;;0.83;0.83;;;;;;;;;;6216922;23;20178;-86
2022/05/18 18:49:21;;;;;;;1.20;1.00;;;;;;;;;;6215155;23;20183;-85
2022/05/18 18:54:44;;;;;;;0.30;0.30;;;;;;;;;;6215096;23;20196;-88
2022/05/18 18:57:20;;;;;;;0.50;0.50;;;;;;;;;;6216434;23;20169;-86
2022/05/18 18:59:49;;;;;;;0.53;0.53;;;;;;;;;;6216536;23;20189;-86
2022/05/18 19:02:17;;;;;;;0.43;0.43;;;;;;;;;;6215158;23;20186;-86
2022/05/18 19:04:46;;;;;;;0.30;0.30;;;;;;;;;;6214949;23;20202;-86
2022/05/18 19:07:16;;;;;;;0.40;0.40;;;;;;;;;;6214643;23;20238;-86
2022/05/18 19:09:46;;;;;;;0.20;0.20;;;;;;;;;;6216237;23;20178;-86
2022/05/18 19:12:16;;;;;;;0.77;0.77;;;;;;;;;;6215167;23;20179;-86
2022/05/18 19:14:47;;;;;;;0.23;0.23;;;;;;;;;;6215083;23;20209;-86
2022/05/18 19:17:15;;;;;;;0.60;0.60;;;;;;;;;;6214806;23;20178;-86
2022/05/18 19:19:43;;;;;;;1.13;1.03;;;;;;;;;;6216142;23;20202;-86
2022/05/18 19:22:12;;;;;;;0.60;0.60;;;;;;;;;;6214813;23;20186;-86
2022/05/18 19:24:42;;;;;;;0.30;0.30;;;;;;;;;;6215093;23;20178;-86
2022/05/18 19:27:11;;;;;;;0.53;0.53;;;;;;;;;;6214674;23;20175;-86
2022/05/18 19:29:40;;;;;;;1.50;1.40;;;;;;;;;;6214000;23;20213;-86
2022/05/18 19:32:11;;;;;;;0.67;0.67;;;;;;;;;;6214692;23;20170;-86
2022/05/18 19:34:40;;;;;;;0.70;0.70;;;;;;;;;;6216011;23;20252;-86
2022/05/18 19:37:14;;;;;;;0.40;0.40;;;;;;;;;;6216030;23;20216;-86
2022/05/18 19:39:44;;;;;;;1.13;1.07;;;;;;;;;;6214781;23;20188;-86
2022/05/18 19:42:14;;;;;;;0.60;0.60;;;;;;;;;;6215134;23;20181;-86
2022/05/18 19:44:43;;;;;;;0.37;0.37;;;;;;;;;;6214493;23;20283;-86
2022/05/18 19:47:12;;;;;;;0.67;0.60;;;;;;;;;;6214634;23;20181;-86